Time;durP1;ratioP1;P1;durP2;ratioP2;P2;SDS_P1;SDS_P2;PMS_P1;PMS_P2;Temp;Humidity;BMP_temperature;BMP_pressure;BME280_temperature;BME280_humidity;BME280_pressure;Samples;Min_cycle;Max_cycle;Signal;HPM_P1;HPM_P2
2023/01/01 00:02:06;;;;;;;12.60;4.77;;;11.70;99.90;;;;;;5005530;28;20532;-78
2023/01/01 00:04:33;;;;;;;11.83;5.90;;;11.60;99.90;;;;;;5011433;28;20389;-79
2023/01/01 00:06:59;;;;;;;10.73;5.10;;;11.60;99.90;;;;;;5012355;28;20423;-79
2023/01/01 00:12:09;;;;;;;12.43;6.23;;;11.70;99.90;;;;;;5009562;28;20413;-78
2023/01/01 00:14:35;;;;;;;11.80;5.07;;;11.60;99.90;;;;;;4994625;28;20419;-79
2023/01/01 00:17:01;;;;;;;8.40;4.30;;;11.60;99.90;;;;;;5011545;28;20195;-79
2023/01/01 00:19:26;;;;;;;11.83;5.27;;;11.60;99.90;;;;;;5001785;28;20187;-79
2023/01/01 00:21:52;;;;;;;11.10;5.53;;;11.60;99.90;;;;;;4998474;28;20223;-79
2023/01/01 00:24:18;;;;;;;14.60;5.50;;;11.70;99.90;;;;;;5001430;28;20198;-78
2023/01/01 00:26:44;;;;;;;15.97;4.73;;;11.70;99.90;;;;;;5012334;28;20418;-81
2023/01/01 00:29:09;;;;;;;10.40;4.63;;;11.60;99.90;;;;;;5003527;28;20179;-79
2023/01/01 00:31:35;;;;;;;8.70;4.57;;;11.60;99.90;;;;;;5007799;28;20183;-79
2023/01/01 00:34:00;;;;;;;12.60;5.40;;;11.60;99.90;;;;;;5003462;28;20176;-80
2023/01/01 00:36:27;;;;;;;15.00;5.30;;;11.50;99.90;;;;;;5007557;28;20225;-78
2023/01/01 00:38:53;;;;;;;11.20;5.50;;;11.40;99.90;;;;;;5012035;28;20222;-78
2023/01/01 00:41:19;;;;;;;13.63;5.60;;;11.30;99.90;;;;;;4998986;28;20793;-79
2023/01/01 00:43:45;;;;;;;9.90;4.03;;;11.20;99.90;;;;;;5012045;28;20417;-79
2023/01/01 00:46:11;;;;;;;20.53;5.97;;;11.30;99.90;;;;;;5011937;28;20777;-79
2023/01/01 00:48:37;;;;;;;9.53;5.03;;;11.20;99.90;;;;;;5011880;28;20183;-79
2023/01/01 00:51:03;;;;;;;12.20;4.10;;;11.20;99.90;;;;;;4998443;28;20180;-79
2023/01/01 00:53:29;;;;;;;7.13;4.73;;;11.10;99.90;;;;;;5011788;28;20755;-79
2023/01/01 00:55:55;;;;;;;9.13;4.80;;;11.00;99.90;;;;;;5011745;28;20898;-79
2023/01/01 00:58:22;;;;;;;9.33;4.20;;;11.00;99.90;;;;;;5012043;28;20266;-78
2023/01/01 01:00:49;;;;;;;14.37;5.40;;;10.90;99.90;;;;;;5011510;28;20425;-79
2023/01/01 01:03:27;;;;;;;10.87;4.80;;;10.90;99.90;;;;;;5002317;28;20533;-79
2023/01/01 01:06:09;;;;;;;11.50;5.77;;;10.90;99.90;;;;;;5010804;28;20961;-79
2023/01/01 01:08:39;;;;;;;15.43;4.83;;;10.80;99.90;;;;;;5011771;28;20505;-79
2023/01/01 01:11:06;;;;;;;10.10;5.00;;;10.80;99.90;;;;;;5011552;28;20914;-78
2023/01/01 01:13:31;;;;;;;8.60;4.90;;;10.90;99.90;;;;;;5011416;28;20421;-78
2023/01/01 01:15:57;;;;;;;10.20;4.73;;;11.10;99.90;;;;;;4990803;28;20419;-79
2023/01/01 01:18:23;;;;;;;8.37;4.40;;;11.10;99.90;;;;;;5002795;28;20215;-79
2023/01/01 01:20:53;;;;;;;9.73;5.33;;;11.20;99.90;;;;;;5011786;28;20509;-79
2023/01/01 01:23:19;;;;;;;8.17;3.57;;;11.30;99.90;;;;;;5011056;28;20191;-79
2023/01/01 01:25:46;;;;;;;7.97;4.00;;;11.30;99.90;;;;;;5010567;28;20457;-78
2023/01/01 01:28:11;;;;;;;10.53;4.00;;;11.40;99.90;;;;;;5009021;28;20418;-79
2023/01/01 01:30:38;;;;;;;7.23;3.90;;;11.40;99.90;;;;;;5011324;28;20465;-78
2023/01/01 01:33:04;;;;;;;12.67;4.87;;;11.40;99.90;;;;;;5011215;28;20248;-79
2023/01/01 01:35:30;;;;;;;16.57;3.90;;;11.50;99.90;;;;;;5011261;28;20500;-79
2023/01/01 01:37:55;;;;;;;13.07;2.83;;;11.60;99.90;;;;;;4997169;28;20179;-79
2023/01/01 01:40:21;;;;;;;5.83;3.40;;;11.80;99.90;;;;;;4999691;28;20183;-79
2023/01/01 01:42:47;;;;;;;11.03;3.70;;;11.80;99.90;;;;;;5011232;28;20188;-79
2023/01/01 01:45:14;;;;;;;8.57;3.90;;;11.90;99.90;;;;;;5011218;28;20202;-79
2023/01/01 01:47:49;;;;;;;12.03;5.20;;;11.80;99.90;;;;;;5011625;28;20430;-79
2023/01/01 01:50:33;;;;;;;5.50;3.00;;;11.90;99.90;;;;;;5011033;28;20410;-78
2023/01/01 01:53:22;;;;;;;6.30;3.40;;;11.90;99.90;;;;;;5010886;28;20440;-79
2023/01/01 01:55:53;;;;;;;14.37;4.43;;;11.90;99.90;;;;;;5011354;28;20500;-79
2023/01/01 01:58:19;;;;;;;13.00;3.53;;;11.90;99.90;;;;;;5011371;28;20418;-79
2023/01/01 02:00:44;;;;;;;12.07;2.93;;;12.00;99.90;;;;;;5010381;28;20537;-79
2023/01/01 02:03:28;;;;;;;4.67;3.27;;;12.10;99.90;;;;;;5002006;28;20465;-79
2023/01/01 02:05:54;;;;;;;5.50;3.37;;;12.10;99.90;;;;;;5010899;28;20713;-79
2023/01/01 02:08:20;;;;;;;12.20;4.13;;;12.00;99.90;;;;;;5011364;28;20422;-78
2023/01/01 02:10:46;;;;;;;9.80;3.93;;;12.10;99.90;;;;;;5011034;28;20659;-79
2023/01/01 02:13:12;;;;;;;7.17;3.87;;;12.00;99.90;;;;;;5010919;28;20521;-79
2023/01/01 02:16:00;;;;;;;4.90;3.33;;;12.00;99.90;;;;;;5000397;28;20183;-78
2023/01/01 02:18:41;;;;;;;10.17;4.80;;;12.00;99.90;;;;;;4998464;28;20423;-79
2023/01/01 02:21:13;;;;;;;9.93;4.37;;;12.00;99.90;;;;;;5014669;28;20460;-79
2023/01/01 02:23:48;;;;;;;6.67;3.20;;;12.00;99.90;;;;;;5014505;28;20925;-79
2023/01/01 02:26:37;;;;;;;6.27;3.73;;;12.00;99.90;;;;;;5014587;28;20417;-79
2023/01/01 02:29:15;;;;;;;15.47;5.07;;;12.10;99.90;;;;;;4991394;28;20402;-79
2023/01/01 02:32:12;;;;;;;13.87;5.03;;;12.00;99.90;;;;;;5011136;28;20434;-79
2023/01/01 02:34:50;;;;;;;16.53;4.17;;;11.90;99.90;;;;;;5006462;28;20506;-79
2023/01/01 02:37:19;;;;;;;13.10;5.27;;;11.90;99.90;;;;;;5014484;28;20430;-79
2023/01/01 02:39:53;;;;;;;9.90;3.80;;;11.70;99.90;;;;;;5014632;28;20815;-78
2023/01/01 02:42:22;;;;;;;9.10;4.23;;;11.70;99.90;;;;;;5014700;28;20793;-78
2023/01/01 02:44:49;;;;;;;4.93;3.50;;;11.70;99.90;;;;;;5013585;28;21122;-79
2023/01/01 02:47:17;;;;;;;9.87;4.47;;;11.80;99.90;;;;;;5006123;28;20426;-78
2023/01/01 02:50:03;;;;;;;6.80;2.87;;;11.80;99.90;;;;;;5014357;28;20910;-79
2023/01/01 02:53:00;;;;;;;6.20;3.10;;;11.90;99.90;;;;;;5014198;28;20405;-79
2023/01/01 02:55:37;;;;;;;6.30;3.23;;;11.80;99.90;;;;;;5014877;28;20472;-78
2023/01/01 03:00:18;;;;;;;8.53;3.67;;;11.80;99.90;;;;;;5014819;28;20413;-79
2023/01/01 03:00:57;;;;;;;10.77;3.57;;;11.80;99.90;;;;;;5014178;28;20445;-78
2023/01/01 03:03:55;;;;;;;9.00;4.27;;;11.80;99.90;;;;;;5005469;28;20948;-79
2023/01/01 03:06:33;;;;;;;5.70;2.60;;;11.90;99.90;;;;;;5000207;28;20443;-79
2023/01/01 03:09:20;;;;;;;7.00;3.57;;;11.90;99.90;;;;;;5010402;28;20433;-79
2023/01/01 03:12:04;;;;;;;5.43;3.17;;;12.00;99.90;;;;;;5014356;28;20418;-79
2023/01/01 03:14:55;;;;;;;7.03;3.00;;;11.90;99.90;;;;;;5007570;28;20415;-78
2023/01/01 03:17:27;;;;;;;7.70;3.47;;;11.80;99.90;;;;;;4996718;28;20411;-78
2023/01/01 03:19:56;;;;;;;5.33;2.93;;;11.80;99.90;;;;;;5007210;28;20445;-78
2023/01/01 03:22:27;;;;;;;11.33;2.97;;;11.80;99.90;;;;;;4987642;28;20516;-79
2023/01/01 03:25:00;;;;;;;8.70;3.10;;;11.70;99.90;;;;;;5013978;28;20474;-79
2023/01/01 03:27:52;;;;;;;8.00;2.83;;;11.70;99.90;;;;;;5008767;28;20431;-79
2023/01/01 03:30:20;;;;;;;4.13;2.17;;;11.80;99.90;;;;;;5012674;28;20429;-79
2023/01/01 03:33:04;;;;;;;7.10;2.63;;;11.70;99.90;;;;;;5013987;28;20422;-78
2023/01/01 03:35:34;;;;;;;7.33;2.73;;;11.70;99.90;;;;;;5013868;28;20430;-79
2023/01/01 03:38:01;;;;;;;5.67;3.30;;;11.60;99.90;;;;;;5013732;28;20890;-79
2023/01/01 03:40:29;;;;;;;10.00;3.50;;;11.60;99.90;;;;;;5013998;28;20437;-79
2023/01/01 03:43:01;;;;;;;6.23;2.73;;;11.50;99.90;;;;;;5013525;28;20418;-79
2023/01/01 03:45:37;;;;;;;5.20;2.90;;;11.50;99.90;;;;;;5007301;28;20481;-79
2023/01/01 03:48:04;;;;;;;5.43;2.83;;;11.50;99.90;;;;;;5011568;28;20418;-79
2023/01/01 03:50:54;;;;;;;4.80;2.93;;;11.50;99.90;;;;;;5013917;28;20449;-79
2023/01/01 03:53:38;;;;;;;6.57;3.23;;;11.60;99.90;;;;;;4998446;28;20900;-78
2023/01/01 03:56:16;;;;;;;4.87;2.80;;;11.80;99.90;;;;;;5013317;28;20413;-79
2023/01/01 03:59:01;;;;;;;6.80;2.57;;;11.70;99.90;;;;;;5013378;28;20414;-78
2023/01/01 04:01:31;;;;;;;3.83;2.03;;;11.70;99.90;;;;;;5012807;28;20421;-79
2023/01/01 04:03:58;;;;;;;5.30;2.30;;;11.70;99.90;;;;;;5011559;28;20707;-79
2023/01/01 04:06:24;;;;;;;6.90;2.90;;;11.60;99.90;;;;;;5012951;28;20878;-78
2023/01/01 04:08:55;;;;;;;5.50;2.70;;;11.70;99.90;;;;;;5012183;28;20492;-79
2023/01/01 04:14:07;;;;;;;4.70;2.60;;;11.70;99.90;;;;;;4995491;28;20434;-79
2023/01/01 04:16:33;;;;;;;4.90;2.80;;;11.70;99.90;;;;;;4995559;28;20777;-78
2023/01/01 04:18:59;;;;;;;5.03;2.67;;;11.80;99.90;;;;;;5008229;28;20182;-78
2023/01/01 04:21:24;;;;;;;6.33;2.77;;;11.70;99.90;;;;;;5012457;28;20729;-78
2023/01/01 04:23:50;;;;;;;5.27;2.77;;;11.60;99.90;;;;;;5010113;28;20275;-79
2023/01/01 04:26:16;;;;;;;5.63;2.67;;;11.70;99.90;;;;;;5012646;28;20218;-78
2023/01/01 04:28:41;;;;;;;4.70;2.13;;;11.60;99.90;;;;;;5012481;28;20186;-79
2023/01/01 04:31:08;;;;;;;6.70;3.00;;;11.70;99.90;;;;;;5012391;28;20206;-78
2023/01/01 04:33:34;;;;;;;4.63;2.80;;;11.60;99.90;;;;;;4998488;28;20261;-78
2023/01/01 04:36:09;;;;;;;8.60;3.00;;;11.50;99.90;;;;;;5012355;28;20947;-79
2023/01/01 04:38:36;;;;;;;6.20;2.43;;;11.50;99.90;;;;;;5012139;28;20186;-78
2023/01/01 04:41:03;;;;;;;4.30;2.50;;;11.60;99.90;;;;;;5012041;28;20944;-78
2023/01/01 04:43:30;;;;;;;8.33;2.40;;;11.50;99.90;;;;;;5011966;28;20422;-78
2023/01/01 04:46:01;;;;;;;3.00;1.87;;;11.40;99.90;;;;;;5001741;28;20950;-78
2023/01/01 04:48:28;;;;;;;3.90;2.10;;;11.40;99.90;;;;;;5012125;28;20425;-78
2023/01/01 04:50:59;;;;;;;6.70;2.27;;;11.40;99.90;;;;;;5011800;28;20430;-78
2023/01/01 04:53:27;;;;;;;7.00;2.80;;;11.50;99.90;;;;;;5011706;28;20473;-79
2023/01/01 04:55:53;;;;;;;9.07;2.70;;;11.40;99.90;;;;;;5012088;28;20430;-78
2023/01/01 04:58:19;;;;;;;11.73;2.80;;;11.60;99.90;;;;;;5012168;28;20422;-79
2023/01/01 05:00:50;;;;;;;6.30;2.53;;;11.50;99.90;;;;;;5011451;28;20310;-78
2023/01/01 05:03:17;;;;;;;4.47;2.17;;;11.60;99.90;;;;;;5002015;28;20271;-79
2023/01/01 05:05:43;;;;;;;4.73;2.50;;;11.50;99.90;;;;;;5005177;28;20469;-78
2023/01/01 05:08:08;;;;;;;3.57;2.03;;;11.50;99.90;;;;;;5000903;28;20415;-78
2023/01/01 05:10:34;;;;;;;4.40;2.53;;;11.50;99.90;;;;;;5011608;28;20186;-79
2023/01/01 05:12:59;;;;;;;3.43;1.37;;;11.50;99.90;;;;;;5011380;28;20194;-79
2023/01/01 05:15:25;;;;;;;7.03;2.40;;;11.40;99.90;;;;;;4997392;28;20271;-79
2023/01/01 05:17:52;;;;;;;4.57;2.80;;;11.40;99.90;;;;;;4994689;28;20218;-79
2023/01/01 05:20:18;;;;;;;3.23;1.43;;;11.30;99.90;;;;;;5006886;28;20179;-79
2023/01/01 05:22:45;;;;;;;4.70;2.00;;;11.40;99.90;;;;;;5009235;28;20448;-79
2023/01/01 05:25:11;;;;;;;4.30;1.57;;;11.30;99.90;;;;;;5011434;28;20336;-79
2023/01/01 05:27:37;;;;;;;4.53;1.33;;;11.30;99.90;;;;;;5009485;28;20536;-79
2023/01/01 05:30:02;;;;;;;3.20;1.50;;;11.30;99.90;;;;;;5001375;28;20529;-79
2023/01/01 05:32:28;;;;;;;3.20;1.43;;;11.30;99.90;;;;;;5011128;28;20194;-79
2023/01/01 05:34:55;;;;;;;5.57;2.40;;;11.30;99.90;;;;;;5011203;28;20179;-79
2023/01/01 05:37:20;;;;;;;6.60;2.60;;;11.30;99.90;;;;;;5011664;28;20336;-79
2023/01/01 05:39:47;;;;;;;6.03;2.30;;;11.20;99.90;;;;;;5011196;28;20513;-79
2023/01/01 05:42:14;;;;;;;3.90;2.30;;;11.20;99.90;;;;;;5011491;28;20278;-78
2023/01/01 05:44:39;;;;;;;4.20;2.13;;;11.10;99.90;;;;;;5011176;28;20457;-79
2023/01/01 05:47:05;;;;;;;4.13;1.80;;;11.10;99.90;;;;;;5001225;28;20413;-79
2023/01/01 05:49:31;;;;;;;4.30;2.63;;;11.00;99.90;;;;;;5011162;28;20187;-79
2023/01/01 05:51:56;;;;;;;9.33;2.27;;;11.00;99.90;;;;;;5013110;28;20777;-79
2023/01/01 05:54:22;;;;;;;3.03;1.50;;;10.90;99.90;;;;;;5015136;28;20183;-79
2023/01/01 05:56:47;;;;;;;5.90;2.07;;;10.90;99.90;;;;;;5015516;28;20274;-79
2023/01/01 05:59:13;;;;;;;4.30;2.13;;;10.90;99.90;;;;;;5014935;28;20275;-78
2023/01/01 06:01:38;;;;;;;5.93;2.30;;;10.80;99.90;;;;;;5011471;28;20192;-78
2023/01/01 06:04:04;;;;;;;3.33;1.77;;;10.90;99.90;;;;;;5010335;28;20278;-79
2023/01/01 06:06:33;;;;;;;6.00;2.00;;;10.80;99.90;;;;;;5015353;28;20207;-79
2023/01/01 06:09:03;;;;;;;2.93;1.70;;;10.70;99.90;;;;;;5014879;28;20639;-78
2023/01/01 06:11:30;;;;;;;5.47;2.40;;;10.70;99.90;;;;;;5014889;28;20442;-79
2023/01/01 06:13:58;;;;;;;2.80;1.27;;;10.60;99.90;;;;;;4999798;28;20920;-78
2023/01/01 06:16:25;;;;;;;4.20;2.33;;;10.60;99.90;;;;;;4995464;28;20418;-79
2023/01/01 06:18:50;;;;;;;4.90;1.70;;;10.60;99.90;;;;;;5009942;28;20453;-78
2023/01/01 06:21:18;;;;;;;3.30;1.90;;;10.60;99.90;;;;;;5014427;28;20464;-79
2023/01/01 06:23:44;;;;;;;3.37;1.70;;;10.60;99.90;;;;;;5003600;28;20233;-79
2023/01/01 06:26:16;;;;;;;3.60;2.00;;;10.60;99.90;;;;;;5014429;28;20469;-79
2023/01/01 06:28:43;;;;;;;4.10;1.87;;;10.60;99.90;;;;;;5014422;28;20287;-79
2023/01/01 06:31:10;;;;;;;6.47;2.10;;;10.60;99.90;;;;;;5014601;28;20509;-78
2023/01/01 06:33:37;;;;;;;5.43;1.93;;;10.70;99.90;;;;;;5001190;28;20425;-79
2023/01/01 06:36:06;;;;;;;5.40;1.57;;;10.60;99.90;;;;;;5014233;28;20489;-78
2023/01/01 06:38:34;;;;;;;4.20;2.00;;;10.70;99.90;;;;;;5014509;28;20797;-79
2023/01/01 06:41:01;;;;;;;2.73;1.33;;;10.70;99.90;;;;;;5001310;28;20423;-78
2023/01/01 06:43:29;;;;;;;2.97;1.97;;;10.70;99.90;;;;;;4988141;28;20450;-79
2023/01/01 06:46:05;;;;;;;4.07;1.77;;;10.70;99.90;;;;;;5003699;28;20467;-78
2023/01/01 06:48:33;;;;;;;3.07;1.60;;;10.70;99.90;;;;;;5002933;28;20425;-78
2023/01/01 06:51:05;;;;;;;3.80;2.07;;;10.60;99.90;;;;;;5013828;28;20426;-78
2023/01/01 06:53:31;;;;;;;2.90;1.67;;;10.70;99.90;;;;;;5009474;28;20442;-78
2023/01/01 06:55:56;;;;;;;3.83;1.50;;;10.80;99.90;;;;;;5000633;28;21161;-78
2023/01/01 06:58:22;;;;;;;3.67;1.80;;;10.80;99.90;;;;;;5014191;28;20191;-79
2023/01/01 07:00:47;;;;;;;5.43;2.17;;;10.80;99.90;;;;;;5013886;28;20183;-78
2023/01/01 07:03:13;;;;;;;2.27;1.27;;;10.80;99.90;;;;;;5011755;28;20539;-77
2023/01/01 07:05:39;;;;;;;7.47;2.20;;;10.60;99.90;;;;;;5013352;28;20214;-77
2023/01/01 07:08:04;;;;;;;3.40;2.00;;;10.70;99.90;;;;;;5013759;28;20187;-78
2023/01/01 07:10:30;;;;;;;5.20;2.00;;;10.70;99.90;;;;;;5013874;28;20685;-78
2023/01/01 07:12:55;;;;;;;5.60;2.10;;;10.70;99.90;;;;;;5003815;28;20210;-78
2023/01/01 07:15:21;;;;;;;7.83;3.07;;;10.70;99.90;;;;;;4996857;28;20188;-78
2023/01/01 07:17:46;;;;;;;3.63;2.50;;;10.70;99.90;;;;;;5007302;28;20188;-78
2023/01/01 07:20:12;;;;;;;4.10;2.47;;;10.70;99.90;;;;;;4997626;28;20191;-77
2023/01/01 07:22:39;;;;;;;3.23;1.87;;;10.70;99.90;;;;;;5013055;28;20203;-78
2023/01/01 07:25:06;;;;;;;7.70;2.30;;;10.70;99.90;;;;;;5012966;28;20217;-78
2023/01/01 07:27:31;;;;;;;4.30;2.37;;;10.70;99.90;;;;;;5013201;28;20414;-78
2023/01/01 07:29:57;;;;;;;2.97;2.30;;;10.70;99.90;;;;;;5005788;28;20497;-78
2023/01/01 07:32:22;;;;;;;2.60;1.60;;;10.70;99.90;;;;;;5009819;28;20187;-78
2023/01/01 07:34:48;;;;;;;4.10;2.10;;;10.70;99.90;;;;;;5013005;28;20183;-78
2023/01/01 07:37:14;;;;;;;9.87;3.27;;;10.60;99.90;;;;;;5013342;28;20583;-78
2023/01/01 07:39:39;;;;;;;8.13;1.90;;;10.70;99.90;;;;;;5013031;28;20266;-78
2023/01/01 07:42:05;;;;;;;9.27;3.30;;;10.80;99.90;;;;;;5012585;28;20191;-78
2023/01/01 07:44:30;;;;;;;6.23;1.77;;;10.80;99.90;;;;;;5013276;28;20626;-78
2023/01/01 07:47:03;;;;;;;3.20;1.77;;;10.90;99.90;;;;;;5013475;28;20211;-78
2023/01/01 07:49:29;;;;;;;6.30;2.13;;;10.90;99.90;;;;;;5008415;28;20584;-78
2023/01/01 07:51:54;;;;;;;5.70;2.47;;;11.00;99.90;;;;;;5012492;28;20428;-78
2023/01/01 07:54:20;;;;;;;3.80;1.80;;;11.10;99.90;;;;;;5012786;28;20221;-78
2023/01/01 07:56:45;;;;;;;3.90;2.20;;;11.00;99.90;;;;;;5012841;28;20206;-78
2023/01/01 07:59:11;;;;;;;4.10;1.70;;;11.00;99.90;;;;;;5012334;28;20294;-78
2023/01/01 08:01:37;;;;;;;2.63;1.67;;;11.00;99.90;;;;;;5009214;28;20259;-78
2023/01/01 08:04:03;;;;;;;5.70;1.87;;;11.00;99.90;;;;;;5006806;28;20190;-78
2023/01/01 08:06:29;;;;;;;3.17;1.40;;;11.00;99.90;;;;;;5012446;28;20226;-78
2023/01/01 08:08:54;;;;;;;5.90;2.60;;;11.00;99.90;;;;;;5012526;28;20425;-77
2023/01/01 08:11:20;;;;;;;4.70;2.07;;;10.90;99.90;;;;;;5012505;28;20202;-78
2023/01/01 08:13:45;;;;;;;4.00;2.00;;;10.90;99.90;;;;;;5010960;28;20694;-78
2023/01/01 08:16:11;;;;;;;2.70;1.60;;;10.90;99.90;;;;;;5000096;28;20230;-78
2023/01/01 08:18:37;;;;;;;4.67;1.90;;;10.90;99.90;;;;;;4997411;28;20230;-77
2023/01/01 08:21:03;;;;;;;6.37;1.73;;;10.90;99.90;;;;;;5001493;28;20218;-77
2023/01/01 08:23:29;;;;;;;3.30;1.33;;;10.90;99.90;;;;;;5009847;28;20648;-78
2023/01/01 08:26:00;;;;;;;4.17;1.87;;;11.00;99.90;;;;;;5012355;28;21000;-78
2023/01/01 08:28:25;;;;;;;6.90;2.30;;;11.00;99.90;;;;;;4999292;28;20278;-77
2023/01/01 08:30:51;;;;;;;2.70;1.30;;;11.00;99.90;;;;;;5003098;28;20415;-77
2023/01/01 08:33:16;;;;;;;3.60;2.47;;;11.00;99.90;;;;;;5008119;28;20577;-78
2023/01/01 08:35:42;;;;;;;2.83;1.60;;;11.00;99.90;;;;;;5011996;28;20183;-77
2023/01/01 08:38:11;;;;;;;3.03;1.70;;;11.00;99.90;;;;;;4998989;28;20219;-78
2023/01/01 08:40:37;;;;;;;5.30;1.60;;;11.00;99.90;;;;;;5012008;28;20543;-78
2023/01/01 08:43:03;;;;;;;2.00;1.10;;;11.10;99.90;;;;;;5011775;28;20910;-78
2023/01/01 08:45:28;;;;;;;5.07;1.50;;;11.20;99.90;;;;;;5011878;28;20668;-78
2023/01/01 08:47:54;;;;;;;7.57;2.27;;;11.30;99.90;;;;;;5012068;28;20217;-78
2023/01/01 08:50:20;;;;;;;4.00;1.70;;;11.40;99.90;;;;;;4998243;28;20222;-78
2023/01/01 08:52:45;;;;;;;7.27;2.17;;;11.60;99.90;;;;;;5007359;28;20187;-78
2023/01/01 08:55:11;;;;;;;5.93;2.30;;;11.50;99.90;;;;;;5011776;28;20278;-78
2023/01/01 08:57:36;;;;;;;4.27;1.27;;;11.70;99.90;;;;;;5012065;28;20931;-78
2023/01/01 09:00:03;;;;;;;3.30;1.60;;;11.80;99.90;;;;;;5012014;28;20183;-78
2023/01/01 09:02:28;;;;;;;3.37;1.90;;;11.90;99.90;;;;;;4989154;28;20219;-78
2023/01/01 09:04:54;;;;;;;3.20;1.33;;;11.90;99.90;;;;;;5011499;28;20505;-78
2023/01/01 09:07:19;;;;;;;3.73;1.80;;;12.00;99.90;;;;;;5011766;28;20178;-78
2023/01/01 09:09:45;;;;;;;3.70;1.50;;;12.10;99.90;;;;;;5011686;28;20258;-77
2023/01/01 09:12:15;;;;;;;4.27;2.10;;;12.10;99.90;;;;;;5011502;28;20245;-78
2023/01/01 09:14:40;;;;;;;3.17;1.57;;;12.10;99.90;;;;;;5003312;28;20198;-78
2023/01/01 09:17:06;;;;;;;3.53;1.93;;;12.20;99.90;;;;;;4993968;28;20434;-78
2023/01/01 09:19:32;;;;;;;4.40;1.67;;;12.20;99.90;;;;;;4994849;28;20192;-77
2023/01/01 09:21:57;;;;;;;8.43;1.40;;;12.30;99.90;;;;;;5008236;28;20203;-78
2023/01/01 09:24:23;;;;;;;4.37;1.70;;;12.40;99.90;;;;;;5011320;28;20638;-78
2023/01/01 09:26:49;;;;;;;3.17;1.80;;;12.30;99.90;;;;;;5000473;28;20362;-77
2023/01/01 09:29:19;;;;;;;2.90;1.47;;;12.30;99.90;;;;;;5013416;28;20187;-78
2023/01/01 09:31:45;;;;;;;3.20;1.70;;;12.30;99.90;;;;;;5012676;28;20768;-78
2023/01/01 09:34:11;;;;;;;4.20;2.13;;;12.30;99.90;;;;;;5005154;28;20514;-78
2023/01/01 09:36:37;;;;;;;3.27;1.67;;;12.30;99.90;;;;;;5012414;28;20545;-78
2023/01/01 09:39:02;;;;;;;4.97;2.43;;;12.30;99.90;;;;;;5005515;28;20541;-78
2023/01/01 09:41:45;;;;;;;5.60;1.40;;;12.30;99.90;;;;;;5012117;28;20175;-78
2023/01/01 09:44:25;;;;;;;2.30;1.40;;;12.20;99.90;;;;;;5015181;28;20190;-78
2023/01/01 09:46:52;;;;;;;6.33;2.37;;;12.30;99.90;;;;;;5015430;28;20418;-78
2023/01/01 09:49:30;;;;;;;3.37;1.93;;;12.30;99.90;;;;;;5014778;28;20426;-78
2023/01/01 09:52:00;;;;;;;2.93;1.53;;;12.40;99.90;;;;;;5003762;28;20405;-77
2023/01/01 09:54:33;;;;;;;4.27;1.63;;;12.40;99.90;;;;;;5011453;28;20420;-78
2023/01/01 09:57:02;;;;;;;3.13;1.80;;;12.40;99.90;;;;;;5015466;28;20502;-78
2023/01/01 09:59:29;;;;;;;5.30;1.80;;;12.40;99.90;;;;;;5014858;28;20508;-77
2023/01/01 10:02:17;;;;;;;2.97;1.77;;;12.40;99.90;;;;;;5009350;28;20933;-78
2023/01/01 10:04:53;;;;;;;3.53;1.50;;;12.50;99.90;;;;;;4988902;28;20519;-77
2023/01/01 10:07:28;;;;;;;4.40;1.83;;;12.60;99.90;;;;;;5015215;28;20428;-78
2023/01/01 10:10:39;;;;;;;7.23;2.50;;;12.60;99.90;;;;;;5015062;28;20956;-77
2023/01/01 10:13:26;;;;;;;3.40;1.87;;;12.70;99.90;;;;;;5014547;28;20890;-78
2023/01/01 10:15:58;;;;;;;4.40;1.70;;;12.70;99.90;;;;;;5014410;28;20449;-78
2023/01/01 10:18:29;;;;;;;4.87;2.03;;;12.80;99.90;;;;;;4995616;28;20407;-78
2023/01/01 10:21:13;;;;;;;4.07;1.70;;;12.90;99.90;;;;;;5013126;28;20410;-78
2023/01/01 10:23:58;;;;;;;3.90;1.60;;;12.90;99.90;;;;;;5014200;28;20448;-78
2023/01/01 10:26:28;;;;;;;3.87;2.00;;;13.00;99.90;;;;;;5014824;28;20469;-78
2023/01/01 10:29:00;;;;;;;5.13;2.07;;;13.10;99.90;;;;;;5014854;28;20406;-78
2023/01/01 10:31:33;;;;;;;4.90;2.07;;;13.10;99.90;;;;;;5014463;28;20402;-78
2023/01/01 10:34:05;;;;;;;4.97;2.43;;;13.30;99.90;;;;;;5014461;28;20422;-78
2023/01/01 10:36:31;;;;;;;2.03;1.30;;;13.40;99.90;;;;;;5014438;28;20424;-78
2023/01/01 10:38:57;;;;;;;4.40;1.80;;;13.50;99.90;;;;;;5013828;28;20452;-78
2023/01/01 10:41:23;;;;;;;3.83;2.13;;;13.60;99.90;;;;;;5014326;28;20457;-77
2023/01/01 10:43:49;;;;;;;3.17;2.07;;;13.70;99.90;;;;;;5014044;28;20186;-78
2023/01/01 10:46:21;;;;;;;3.13;1.67;;;13.90;99.90;;;;;;5013848;28;20646;-78
2023/01/01 10:49:04;;;;;;;5.77;2.40;;;14.00;99.90;;;;;;5004899;28;20172;-78
2023/01/01 10:51:29;;;;;;;8.17;2.00;;;14.00;99.90;;;;;;5012278;28;20806;-78
2023/01/01 10:53:55;;;;;;;4.60;1.60;;;14.20;99.90;;;;;;5013865;28;20441;-78
2023/01/01 10:56:23;;;;;;;5.57;2.33;;;14.30;99.90;;;;;;5014183;28;20262;-78
2023/01/01 10:58:49;;;;;;;3.23;1.93;;;14.30;99.90;;;;;;5014111;28;20724;-78
2023/01/01 11:01:22;;;;;;;2.93;1.90;;;14.50;99.90;;;;;;5013743;28;20418;-78
2023/01/01 11:04:19;;;;;;;12.40;2.00;;;14.60;99.90;;;;;;5013342;28;20456;-78
2023/01/01 11:06:46;;;;;;;3.10;1.40;;;14.70;99.90;;;;;;4995807;28;20495;-77
2023/01/01 11:09:22;;;;;;;6.30;2.00;;;14.70;99.90;;;;;;5013748;28;20430;-78
2023/01/01 11:12:01;;;;;;;5.30;1.90;;;14.80;99.90;;;;;;5013352;28;20420;-78
2023/01/01 11:14:36;;;;;;;3.00;2.10;;;14.80;99.90;;;;;;5007179;28;20418;-78
2023/01/01 11:17:03;;;;;;;4.07;1.83;;;14.80;99.80;;;;;;4994761;28;20423;-78
2023/01/01 11:19:33;;;;;;;15.60;2.10;;;14.80;99.90;;;;;;4997024;28;20895;-78
2023/01/01 11:21:59;;;;;;;4.33;1.90;;;14.90;99.50;;;;;;5009771;28;20902;-78
2023/01/01 11:24:33;;;;;;;3.50;2.20;;;15.00;99.40;;;;;;5013517;28;20510;-78
2023/01/01 11:27:31;;;;;;;3.57;1.50;;;14.90;99.50;;;;;;5013580;28;20422;-78
2023/01/01 11:30:18;;;;;;;3.17;1.20;;;15.00;99.40;;;;;;4976606;28;20532;-78
2023/01/01 11:32:44;;;;;;;4.57;1.83;;;15.10;99.30;;;;;;4998562;28;21078;-78
2023/01/01 11:35:19;;;;;;;3.67;1.73;;;15.10;99.10;;;;;;5011162;28;20430;-78
2023/01/01 11:37:45;;;;;;;5.17;1.50;;;15.20;99.40;;;;;;5013609;28;20520;-78
2023/01/01 11:40:21;;;;;;;1.77;1.13;;;15.20;98.40;;;;;;5013061;28;20433;-79
2023/01/01 11:42:55;;;;;;;6.10;1.80;;;15.30;98.20;;;;;;4999968;28;20426;-78
2023/01/01 11:45:24;;;;;;;4.53;2.20;;;15.30;98.20;;;;;;5004742;28;20486;-78
2023/01/01 11:48:01;;;;;;;2.33;1.33;;;15.40;97.90;;;;;;5008765;28;20437;-78
2023/01/01 11:50:33;;;;;;;2.80;1.53;;;15.40;97.80;;;;;;5012092;28;20420;-78
2023/01/01 11:53:22;;;;;;;4.37;1.70;;;15.40;97.80;;;;;;4999809;28;20414;-78
2023/01/01 11:56:00;;;;;;;1.90;0.97;;;15.50;98.30;;;;;;4999792;28;20463;-78
2023/01/01 11:58:35;;;;;;;5.10;1.93;;;15.50;98.20;;;;;;5013206;28;20741;-78
2023/01/01 12:01:18;;;;;;;2.40;1.43;;;15.50;97.80;;;;;;5012591;28;20528;-78
2023/01/01 12:03:46;;;;;;;3.90;1.83;;;15.50;97.80;;;;;;4996407;28;20910;-78
2023/01/01 12:06:40;;;;;;;3.83;1.57;;;15.60;97.80;;;;;;5012172;28;20460;-78
2023/01/01 12:09:17;;;;;;;3.20;1.33;;;15.60;98.00;;;;;;5009745;28;20431;-78
2023/01/01 12:11:54;;;;;;;2.87;1.47;;;15.50;98.30;;;;;;5003926;28;20456;-78
2023/01/01 12:14:27;;;;;;;4.10;1.87;;;15.50;98.00;;;;;;5006837;28;20482;-78
2023/01/01 12:17:02;;;;;;;2.60;1.50;;;15.60;98.20;;;;;;4994303;28;20411;-78
2023/01/01 12:19:45;;;;;;;4.27;1.30;;;15.50;98.30;;;;;;4994476;28;20424;-78
2023/01/01 12:22:16;;;;;;;5.50;1.97;;;15.50;98.50;;;;;;5011793;28;20438;-78
2023/01/01 12:24:43;;;;;;;1.80;0.77;;;15.50;98.40;;;;;;5012371;28;20461;-78
2023/01/01 12:27:33;;;;;;;2.30;1.10;;;15.60;98.10;;;;;;5014112;28;20414;-78
2023/01/01 12:30:24;;;;;;;5.17;1.80;;;15.60;97.90;;;;;;5009916;28;20419;-78
2023/01/01 12:33:11;;;;;;;4.80;1.90;;;15.60;98.30;;;;;;5011852;28;20421;-78
2023/01/01 12:35:58;;;;;;;4.20;1.60;;;15.70;98.50;;;;;;4990136;28;20410;-78
2023/01/01 12:38:27;;;;;;;1.60;1.00;;;15.60;97.80;;;;;;5008254;28;20441;-78
2023/01/01 12:41:19;;;;;;;2.97;1.30;;;15.60;98.00;;;;;;5004629;28;20460;-78
2023/01/01 12:44:10;;;;;;;6.13;1.63;;;15.60;98.30;;;;;;5003907;28;21109;-78
2023/01/01 12:46:49;;;;;;;2.90;1.80;;;15.60;98.60;;;;;;5010921;28;20453;-78
2023/01/01 12:49:26;;;;;;;3.33;1.60;;;15.70;98.10;;;;;;5012033;28;20504;-79
2023/01/01 12:52:02;;;;;;;4.13;1.53;;;15.70;98.50;;;;;;5011241;28;20413;-79
2023/01/01 12:55:02;;;;;;;2.77;1.00;;;15.70;97.60;;;;;;5011463;28;20529;-79
2023/01/01 12:57:30;;;;;;;3.97;1.50;;;15.80;97.60;;;;;;5012160;28;20442;-78
2023/01/01 12:59:59;;;;;;;4.23;1.07;;;15.80;96.80;;;;;;5011691;28;20410;-78
2023/01/01 13:02:28;;;;;;;5.53;1.67;;;15.80;96.30;;;;;;5002461;28;20415;-78
2023/01/01 13:05:12;;;;;;;4.63;1.20;;;15.90;96.90;;;;;;5011526;28;20469;-78
2023/01/01 13:07:41;;;;;;;9.23;1.50;;;15.90;96.30;;;;;;5007207;28;20938;-79
2023/01/01 13:10:33;;;;;;;5.23;2.13;;;15.90;96.50;;;;;;4991947;28;20426;-78